createdAt,value
2019-04-03T00:01:42.669Z,77106.40
2019-04-03T00:04:11.931Z,77107.41
2019-04-03T00:06:41.510Z,77108.42
2019-04-03T00:09:11.023Z,77105.39
2019-04-03T00:11:40.389Z,77097.31
2019-04-03T00:14:12.209Z,77098.31
2019-04-03T00:16:41.317Z,77105.39
2019-04-03T00:19:10.898Z,77107.41
2019-04-03T00:21:40.599Z,77107.41
2019-04-03T00:24:09.861Z,77112.46
2019-04-03T00:26:39.129Z,77115.48
2019-04-03T00:29:08.797Z,77116.50
2019-04-03T00:31:38.358Z,77103.37
2019-04-03T00:34:07.667Z,77105.39
2019-04-03T00:36:37.295Z,77111.45
2019-04-03T00:39:09.417Z,77109.43
2019-04-03T00:41:38.677Z,77109.43
2019-04-03T00:44:07.969Z,77101.34
2019-04-03T00:46:37.566Z,77097.31
2019-04-03T00:49:06.786Z,77099.33
2019-04-03T00:51:36.206Z,77106.40
2019-04-03T00:54:05.490Z,77105.39
2019-04-03T00:56:35.016Z,77101.34
2019-04-03T00:59:04.509Z,77099.33
2019-04-03T01:01:34.104Z,77111.45
2019-04-03T01:04:03.356Z,77124.58
2019-04-03T01:06:32.635Z,77146.80
2019-04-03T01:09:01.872Z,77173.07
2019-04-03T01:11:31.166Z,77199.34
2019-04-03T01:14:01.604Z,77228.63
2019-04-03T01:16:33.016Z,77231.66
2019-04-03T01:19:05.253Z,77240.75
2019-04-03T01:21:37.248Z,77254.89
2019-04-03T01:24:08.358Z,77257.92
2019-04-03T01:26:37.310Z,77256.92
2019-04-03T01:29:08.290Z,77248.84
2019-04-03T01:31:37.487Z,77251.87
2019-04-03T01:34:08.266Z,77256.92
2019-04-03T01:36:38.118Z,77269.04
2019-04-03T01:39:08.412Z,77271.06
2019-04-03T01:41:37.621Z,77272.07
2019-04-03T01:44:07.204Z,77279.14
2019-04-03T01:46:36.419Z,77287.22
2019-04-03T01:49:05.661Z,77284.19
2019-04-03T01:51:34.886Z,77293.28
2019-04-03T01:54:04.184Z,77309.45
2019-04-03T01:56:33.897Z,77304.39
2019-04-03T01:59:06.574Z,77317.53
2019-04-03T02:01:37.917Z,77313.48
2019-04-03T02:04:06.723Z,77321.57
2019-04-03T02:06:36.035Z,77328.64
2019-04-03T02:09:08.361Z,77332.68
2019-04-03T02:11:38.043Z,77325.61
2019-04-03T02:14:08.441Z,77329.66
2019-04-03T02:16:39.571Z,77324.60
2019-04-03T02:19:09.343Z,77323.59
2019-04-03T02:21:39.643Z,77326.63
2019-04-03T02:24:09.662Z,77320.56
2019-04-03T02:26:38.941Z,77315.51
2019-04-03T02:29:09.259Z,77320.56
2019-04-03T02:31:39.321Z,77318.54
2019-04-03T02:34:08.912Z,77312.48
2019-04-03T02:36:38.541Z,77315.51
2019-04-03T02:39:09.639Z,77328.64
2019-04-03T02:41:39.193Z,77320.56
2019-04-03T02:44:08.511Z,77329.66
2019-04-03T02:46:38.080Z,77320.56
2019-04-03T02:49:10.160Z,77294.30
2019-04-03T02:51:39.048Z,77303.39
2019-04-03T02:54:17.568Z,77308.44
2019-04-03T02:56:47.020Z,77312.48
2019-04-03T02:59:16.690Z,77317.53
2019-04-03T03:01:46.713Z,77324.60
2019-04-03T03:04:16.443Z,77319.55
2019-04-03T03:06:45.895Z,77317.53
2019-04-03T03:09:15.467Z,77317.53
2019-04-03T03:11:45.249Z,77306.42
2019-04-03T03:14:15.502Z,77313.48
2019-04-03T03:16:49.227Z,77319.55
2019-04-03T03:19:17.543Z,77327.63
2019-04-03T03:21:46.978Z,77331.67
2019-04-03T03:24:16.579Z,77327.63
2019-04-03T03:26:45.958Z,77333.69
2019-04-03T03:29:19.469Z,77347.84
2019-04-03T03:32:04.771Z,77366.02
2019-04-03T03:34:43.652Z,77381.17
2019-04-03T03:36:50.832Z,77386.23
2019-04-03T03:39:20.821Z,77401.38
2019-04-03T03:41:51.164Z,77418.55
2019-04-03T03:44:21.661Z,77410.47
2019-04-03T03:46:52.284Z,77405.42
2019-04-03T03:49:22.258Z,77418.55
2019-04-03T03:51:51.600Z,77439.77
2019-04-03T03:54:20.840Z,77443.81
2019-04-03T03:56:50.509Z,77456.94
2019-04-03T03:59:22.085Z,77476.14
2019-04-03T04:01:51.789Z,77485.23
2019-04-03T04:04:21.835Z,77496.34
2019-04-03T04:06:51.658Z,77499.38
2019-04-03T04:09:23.291Z,77507.45
2019-04-03T04:11:53.155Z,77513.52
2019-04-03T04:14:23.507Z,77521.59
2019-04-03T04:16:53.563Z,77526.65
2019-04-03T04:19:23.535Z,77526.65
2019-04-03T04:21:54.020Z,77530.69
2019-04-03T04:24:23.671Z,77532.71
2019-04-03T04:26:53.538Z,77531.70
2019-04-03T04:29:22.942Z,77527.66
2019-04-03T04:31:52.984Z,77527.66
2019-04-03T04:34:22.215Z,77528.67
2019-04-03T04:36:53.081Z,77526.65
2019-04-03T04:39:24.041Z,77520.59
2019-04-03T04:41:53.983Z,77527.66
2019-04-03T04:44:23.213Z,77530.69
2019-04-03T04:46:52.496Z,77530.69
2019-04-03T04:49:22.648Z,77539.78
2019-04-03T04:51:52.586Z,77541.80
2019-04-03T04:54:22.409Z,77549.89
2019-04-03T04:56:51.834Z,77562.01
2019-04-03T04:59:21.198Z,77567.06
2019-04-03T05:01:50.536Z,77569.08
2019-04-03T05:04:20.257Z,77571.10
2019-04-03T05:06:49.573Z,77570.09
2019-04-03T05:09:19.016Z,77577.16
2019-04-03T05:11:48.266Z,77576.16
2019-04-03T05:14:18.247Z,77583.23
2019-04-03T05:16:47.794Z,77579.19
2019-04-03T05:19:19.311Z,77578.17
2019-04-03T05:21:48.348Z,77579.19
2019-04-03T05:24:17.673Z,77583.23
2019-04-03T05:26:46.884Z,77585.25
2019-04-03T05:29:16.218Z,77584.23
2019-04-03T05:31:45.698Z,77587.27
2019-04-03T05:34:15.248Z,77583.23
2019-04-03T05:36:44.575Z,77575.14
2019-04-03T05:39:15.975Z,77563.02
2019-04-03T05:41:45.606Z,77566.05
2019-04-03T05:44:16.003Z,77566.05
2019-04-03T05:46:45.417Z,77555.95
2019-04-03T05:49:14.947Z,77564.03
2019-04-03T05:51:44.574Z,77558.98
2019-04-03T05:54:14.727Z,77563.02
2019-04-03T05:56:44.478Z,77561.00
2019-04-03T05:59:14.305Z,77554.94
2019-04-03T06:01:46.364Z,77547.86
2019-04-03T06:04:14.993Z,77540.80
2019-04-03T06:06:46.456Z,77528.67
2019-04-03T06:09:15.818Z,77521.59
2019-04-03T06:11:46.049Z,77514.52
2019-04-03T06:14:16.838Z,77503.41
2019-04-03T06:16:46.695Z,77508.47
2019-04-03T06:19:15.971Z,77504.42
2019-04-03T06:21:46.124Z,77499.38
2019-04-03T06:24:17.835Z,77486.23
2019-04-03T06:26:46.966Z,77470.08
2019-04-03T06:29:16.932Z,77442.80
2019-04-03T06:31:47.660Z,77425.63
2019-04-03T06:34:16.897Z,77403.40
2019-04-03T06:36:46.183Z,77394.30
2019-04-03T06:39:16.646Z,77382.19
2019-04-03T06:41:45.873Z,77371.07
2019-04-03T06:44:15.200Z,77377.13
2019-04-03T06:46:44.558Z,77372.08
2019-04-03T06:49:13.942Z,77372.08
2019-04-03T06:51:43.600Z,77383.19
2019-04-03T06:54:12.849Z,77377.13
2019-04-03T06:56:42.511Z,77385.22
2019-04-03T06:59:12.059Z,77361.98
2019-04-03T07:01:42.388Z,77351.88
2019-04-03T07:04:11.610Z,77345.81
2019-04-03T07:06:44.305Z,77339.75
2019-04-03T07:09:22.820Z,77309.45
2019-04-03T07:11:44.267Z,77301.37
2019-04-03T07:14:13.832Z,77300.36
2019-04-03T07:16:43.368Z,77276.11
2019-04-03T07:19:12.656Z,77279.14
2019-04-03T07:21:42.177Z,77304.39
2019-04-03T07:24:11.417Z,77297.33
2019-04-03T07:26:40.730Z,77306.42
2019-04-03T07:29:12.167Z,77284.19
2019-04-03T07:31:41.623Z,77270.05
2019-04-03T07:34:11.002Z,77291.27
2019-04-03T07:36:41.479Z,77287.22
2019-04-03T07:39:12.050Z,77284.19
2019-04-03T07:41:41.702Z,77319.55
2019-04-03T07:44:12.138Z,77296.31
2019-04-03T07:46:41.910Z,77248.84
2019-04-03T07:49:13.788Z,77255.91
2019-04-03T07:51:43.255Z,77228.63
2019-04-03T07:54:13.822Z,77231.66
2019-04-03T07:56:43.160Z,77198.33
2019-04-03T07:59:12.377Z,77177.11
2019-04-03T08:01:41.881Z,77164.98
2019-04-03T08:04:11.808Z,77194.28
2019-04-03T08:06:41.402Z,77251.87
2019-04-03T08:09:10.648Z,77239.74
2019-04-03T08:11:41.047Z,77239.74
2019-04-03T08:14:10.690Z,77212.47
2019-04-03T08:16:42.150Z,77221.56
2019-04-03T08:19:14.456Z,77171.05
2019-04-03T08:21:43.760Z,77146.80
2019-04-03T08:24:13.333Z,77116.50
2019-04-03T08:26:42.578Z,77080.13
2019-04-03T08:29:12.100Z,77055.89
2019-04-03T08:31:44.192Z,77022.56
2019-04-03T08:34:17.100Z,77063.97
2019-04-03T08:36:45.187Z,77132.66
2019-04-03T08:39:15.942Z,77114.48
2019-04-03T08:41:45.491Z,77141.75
2019-04-03T08:44:14.836Z,77147.81
2019-04-03T08:46:45.908Z,77132.66
2019-04-03T08:49:15.176Z,77119.53
2019-04-03T08:51:45.927Z,77138.72
2019-04-03T08:54:17.340Z,77152.87
2019-04-03T08:56:48.996Z,77160.95
2019-04-03T08:59:17.849Z,77156.91
2019-04-03T09:01:48.250Z,77144.78
2019-04-03T09:04:18.059Z,77083.17
2019-04-03T09:06:47.367Z,77146.80
2019-04-03T09:09:16.646Z,77070.03
2019-04-03T09:11:47.268Z,77116.50
2019-04-03T09:14:19.209Z,77083.17
2019-04-03T09:16:47.457Z,77086.20
2019-04-03T09:19:17.372Z,77042.76
2019-04-03T09:21:50.071Z,76972.05
2019-04-03T09:24:19.470Z,76917.50
2019-04-03T09:26:48.775Z,76975.08
2019-04-03T09:29:18.784Z,76949.83
2019-04-03T09:31:50.653Z,77009.42
2019-04-03T09:34:20.420Z,77012.45
2019-04-03T09:36:49.919Z,76955.89
2019-04-03T09:39:19.156Z,76906.39
2019-04-03T09:41:50.971Z,76926.59
2019-04-03T09:44:20.391Z,76997.30
2019-04-03T09:46:49.734Z,76934.67
2019-04-03T09:49:19.175Z,76868.01
2019-04-03T09:51:49.785Z,76947.80
2019-04-03T09:54:19.584Z,76947.80
2019-04-03T09:56:57.946Z,76942.76
2019-04-03T09:59:19.824Z,76939.73
2019-04-03T10:01:49.370Z,76976.09
2019-04-03T10:04:20.527Z,76903.36
2019-04-03T10:06:49.603Z,76914.47
2019-04-03T10:09:18.930Z,76940.73
2019-04-03T10:11:48.767Z,76934.67
2019-04-03T10:14:20.657Z,76981.14
2019-04-03T10:16:51.889Z,76965.98
2019-04-03T10:19:21.254Z,76980.13
2019-04-03T10:21:53.305Z,76898.31
2019-04-03T10:24:22.483Z,76887.20
2019-04-03T10:26:52.048Z,76869.02
2019-04-03T10:29:21.951Z,76878.11
2019-04-03T10:31:54.952Z,76912.45
2019-04-03T10:34:22.993Z,76940.73
2019-04-03T10:36:52.236Z,76985.19
2019-04-03T10:39:23.268Z,76993.27
2019-04-03T10:41:52.844Z,77036.70
2019-04-03T10:44:22.469Z,76992.25
2019-04-03T10:46:52.913Z,77003.36
2019-04-03T10:49:22.815Z,76978.11
2019-04-03T10:51:52.407Z,76979.13
2019-04-03T10:54:21.953Z,76876.09
2019-04-03T10:56:52.705Z,76917.50
2019-04-03T10:59:22.952Z,76880.13
2019-04-03T11:01:52.587Z,76853.87
2019-04-03T11:04:22.373Z,76895.28
2019-04-03T11:06:51.598Z,76881.14
2019-04-03T11:09:21.169Z,76911.44
2019-04-03T11:11:50.560Z,76918.52
2019-04-03T11:14:19.854Z,76944.78
2019-04-03T11:16:49.419Z,76864.98
2019-04-03T11:19:20.190Z,76950.84
2019-04-03T11:21:49.748Z,76876.09
2019-04-03T11:24:19.156Z,76918.52
2019-04-03T11:26:50.805Z,76928.61
2019-04-03T11:29:20.801Z,76979.13
2019-04-03T11:31:50.352Z,76959.92
2019-04-03T11:34:19.965Z,76975.08
2019-04-03T11:36:49.597Z,76989.22
2019-04-03T11:39:20.195Z,77037.71
2019-04-03T11:41:49.460Z,77012.45
2019-04-03T11:44:18.893Z,76976.09
2019-04-03T11:46:48.417Z,76949.83
2019-04-03T11:49:20.015Z,76927.61
2019-04-03T11:51:49.009Z,77004.38
2019-04-03T11:54:18.594Z,77004.38
2019-04-03T11:56:48.035Z,76945.78
2019-04-03T11:59:18.005Z,76941.75
2019-04-03T12:01:47.937Z,76934.67
2019-04-03T12:04:17.181Z,76912.45
2019-04-03T12:06:46.473Z,76807.41
2019-04-03T12:09:16.251Z,76833.66
2019-04-03T12:11:45.934Z,76874.06
2019-04-03T12:14:17.096Z,76848.81
2019-04-03T12:16:46.198Z,76846.80
2019-04-03T12:19:15.428Z,76806.39
2019-04-03T12:21:44.858Z,76814.47
2019-04-03T12:24:14.390Z,76721.55
2019-04-03T12:26:44.331Z,76817.50
2019-04-03T12:29:14.064Z,76845.78
2019-04-03T12:31:43.746Z,76906.39
2019-04-03T12:34:13.223Z,76970.03
2019-04-03T12:36:45.162Z,76962.96
2019-04-03T12:39:16.645Z,77008.41
2019-04-03T12:41:46.029Z,76986.19
2019-04-03T12:44:15.595Z,76973.06
2019-04-03T12:46:45.214Z,76971.04
2019-04-03T12:49:14.452Z,76923.56
2019-04-03T12:51:44.547Z,76880.13
2019-04-03T12:54:14.152Z,76845.78
2019-04-03T12:56:43.907Z,76829.63
2019-04-03T12:59:13.215Z,76861.95
2019-04-03T13:01:42.482Z,76799.32
2019-04-03T13:04:12.173Z,76757.91
2019-04-03T13:06:42.474Z,76839.73
2019-04-03T13:09:12.920Z,76889.22
2019-04-03T13:11:42.173Z,76902.35
2019-04-03T13:14:23.423Z,76884.17
2019-04-03T13:16:42.660Z,76821.55
2019-04-03T13:19:16.168Z,76840.73
2019-04-03T13:21:45.519Z,76839.73
2019-04-03T13:24:17.100Z,76831.64
2019-04-03T13:26:45.953Z,76873.06
2019-04-03T13:29:15.621Z,76879.13
2019-04-03T13:31:47.072Z,76900.33
2019-04-03T13:34:16.591Z,76939.73
2019-04-03T13:36:50.364Z,76859.92
2019-04-03T13:39:18.724Z,76843.77
2019-04-03T13:41:49.309Z,76817.50
2019-04-03T13:44:18.903Z,76861.95
2019-04-03T13:46:48.131Z,76828.61
2019-04-03T13:49:18.572Z,76794.27
2019-04-03T13:51:48.934Z,76798.31
2019-04-03T13:54:18.328Z,76784.17
2019-04-03T13:56:48.948Z,76780.13
2019-04-03T13:59:18.656Z,76672.05
2019-04-03T14:01:47.936Z,76687.20
2019-04-03T14:04:17.288Z,76698.31
2019-04-03T14:06:46.535Z,76678.11
2019-04-03T14:09:17.681Z,76727.61
2019-04-03T14:11:47.051Z,76721.55
2019-04-03T14:14:16.706Z,76697.30
2019-04-03T14:16:46.746Z,76750.84
2019-04-03T14:19:16.206Z,76763.97
2019-04-03T14:21:46.221Z,76806.39
2019-04-03T14:24:15.774Z,76773.06
2019-04-03T14:26:46.380Z,76784.17
2019-04-03T14:29:16.804Z,76790.23
2019-04-03T14:31:48.961Z,76768.02
2019-04-03T14:34:19.940Z,76726.59
2019-04-03T14:36:50.483Z,76749.83
2019-04-03T14:39:20.512Z,76791.24
2019-04-03T14:41:53.176Z,76806.39
2019-04-03T14:44:21.777Z,76778.11
2019-04-03T14:46:51.707Z,76799.32
2019-04-03T14:49:22.598Z,76801.34
2019-04-03T14:51:51.917Z,76827.61
2019-04-03T14:54:23.581Z,76844.78
2019-04-03T14:56:52.618Z,76824.58
2019-04-03T14:59:21.998Z,76815.48
2019-04-03T15:01:52.321Z,76840.73
2019-04-03T15:04:22.325Z,76829.63
2019-04-03T15:07:01.509Z,76819.52
2019-04-03T15:09:24.422Z,76837.70
2019-04-03T15:11:53.636Z,76820.53
2019-04-03T15:14:23.115Z,76829.63
2019-04-03T15:16:53.023Z,76827.61
2019-04-03T15:19:23.658Z,76862.95
2019-04-03T15:21:57.131Z,76868.01
2019-04-03T15:24:24.683Z,76852.86
2019-04-03T15:26:54.920Z,76868.01
2019-04-03T15:29:26.272Z,76870.03
2019-04-03T15:31:56.320Z,76882.15
2019-04-03T15:34:27.689Z,76894.27
2019-04-03T15:36:57.296Z,76871.04
2019-04-03T15:39:26.662Z,76874.06
2019-04-03T15:41:57.768Z,76872.05
2019-04-03T15:44:28.106Z,76847.80
2019-04-03T15:47:00.783Z,76831.64
2019-04-03T15:49:29.939Z,76821.55
2019-04-03T15:51:59.198Z,76829.63
2019-04-03T15:54:31.320Z,76835.69
2019-04-03T15:57:00.110Z,76833.66
2019-04-03T15:59:30.641Z,76823.56
2019-04-03T16:02:02.123Z,76867.00
2019-04-03T16:04:33.997Z,76858.92
2019-04-03T16:07:05.117Z,76845.78
2019-04-03T16:09:34.959Z,76860.94
2019-04-03T16:12:06.268Z,76837.70
2019-04-03T16:14:35.898Z,76848.81
2019-04-03T16:17:05.631Z,76885.18
2019-04-03T16:19:35.266Z,76880.13
2019-04-03T16:22:06.161Z,76887.20
2019-04-03T16:24:35.395Z,76908.41
2019-04-03T16:27:07.723Z,76903.36
2019-04-03T16:29:36.251Z,76914.47
2019-04-03T16:32:05.685Z,76903.36
2019-04-03T16:34:34.953Z,76929.63
2019-04-03T16:37:04.214Z,76921.55
2019-04-03T16:39:33.741Z,76933.66
2019-04-03T16:42:03.015Z,76934.67
2019-04-03T16:44:32.589Z,76942.76
2019-04-03T16:47:01.882Z,76942.76
2019-04-03T16:49:31.593Z,76945.78
2019-04-03T16:52:04.883Z,76947.80
2019-04-03T16:54:33.690Z,76954.88
2019-04-03T16:57:03.858Z,76985.19
2019-04-03T16:59:35.411Z,76988.21
2019-04-03T17:02:04.269Z,76991.24
2019-04-03T17:04:35.652Z,76991.24
2019-04-03T17:07:05.323Z,76985.19
2019-04-03T17:09:37.451Z,77005.38
2019-04-03T17:12:05.629Z,76998.31
2019-04-03T17:14:35.362Z,76986.19
2019-04-03T17:17:04.990Z,76993.27
2019-04-03T17:19:34.251Z,77009.42
2019-04-03T17:22:06.585Z,77015.48
2019-04-03T17:24:42.308Z,77018.52
2019-04-03T17:27:06.054Z,77018.52
2019-04-03T17:29:35.459Z,77019.52
2019-04-03T17:32:07.910Z,77016.50
2019-04-03T17:34:42.046Z,77022.56
2019-04-03T17:37:09.112Z,77019.52
2019-04-03T17:39:39.915Z,77019.52
2019-04-03T17:42:09.226Z,77021.55
2019-04-03T17:44:38.642Z,77019.52
2019-04-03T17:47:08.280Z,77017.50
2019-04-03T17:49:37.584Z,77029.63
2019-04-03T17:52:07.466Z,77037.71
2019-04-03T17:54:38.498Z,77038.72
2019-04-03T17:57:08.124Z,77036.70
2019-04-03T17:59:37.347Z,77053.88
2019-04-03T18:02:06.956Z,77055.89
2019-04-03T18:04:36.886Z,77049.83
2019-04-03T18:07:06.459Z,77055.89
2019-04-03T18:09:37.016Z,77058.92
2019-04-03T18:12:06.295Z,77064.98
2019-04-03T18:14:35.690Z,77072.05
2019-04-03T18:17:05.307Z,77084.17
2019-04-03T18:19:37.808Z,77078.11
2019-04-03T18:22:05.914Z,77076.09
2019-04-03T18:24:36.889Z,77081.14
2019-04-03T18:27:06.654Z,77079.13
2019-04-03T18:29:37.533Z,77062.96
2019-04-03T18:32:07.579Z,77054.88
2019-04-03T18:34:37.190Z,77027.61
2019-04-03T18:37:07.536Z,77028.62
2019-04-03T18:39:40.250Z,77060.94
2019-04-03T18:42:09.302Z,77062.96
2019-04-03T18:44:38.690Z,77049.83
2019-04-03T18:47:09.593Z,77051.85
2019-04-03T18:49:39.949Z,77048.82
2019-04-03T18:52:09.689Z,77065.99
2019-04-03T18:54:42.148Z,77051.85
2019-04-03T18:57:11.061Z,77065.99
2019-04-03T18:59:40.343Z,77085.19
2019-04-03T19:02:10.260Z,77105.39
2019-04-03T19:04:39.500Z,77119.53
2019-04-03T19:07:09.384Z,77120.55
2019-04-03T19:09:38.692Z,77122.56
2019-04-03T19:12:08.952Z,77115.48
2019-04-03T19:14:39.223Z,77116.50
2019-04-03T19:17:09.288Z,77107.41
2019-04-03T19:19:40.383Z,77098.31
2019-04-03T19:22:10.323Z,77089.23
2019-04-03T19:24:41.298Z,77097.31
2019-04-03T19:27:12.379Z,77089.23
2019-04-03T19:29:41.832Z,77086.20
2019-04-03T19:32:12.238Z,77111.45
2019-04-03T19:34:42.731Z,77114.48
2019-04-03T19:37:12.442Z,77126.60
2019-04-03T19:39:42.150Z,77129.63
2019-04-03T19:42:13.162Z,77129.63
2019-04-03T19:44:42.721Z,77138.72
2019-04-03T19:47:12.032Z,77143.78
2019-04-03T19:49:41.359Z,77152.87
2019-04-03T19:52:11.365Z,77155.90
2019-04-03T19:54:40.575Z,77153.88
2019-04-03T19:57:10.175Z,77151.86
2019-04-03T19:59:40.784Z,77149.84
2019-04-03T20:02:10.257Z,77159.94
2019-04-03T20:04:40.036Z,77169.03
2019-04-03T20:07:09.290Z,77169.03
2019-04-03T20:09:38.883Z,77178.13
2019-04-03T20:12:08.254Z,77177.11
2019-04-03T20:14:37.516Z,77191.25
2019-04-03T20:17:06.774Z,77191.25
2019-04-03T20:19:36.209Z,77185.19
2019-04-03T20:22:07.063Z,77192.27
2019-04-03T20:24:37.144Z,77186.20
2019-04-03T20:27:07.710Z,77175.09
2019-04-03T20:29:37.146Z,77176.10
2019-04-03T20:32:07.139Z,77179.13
2019-04-03T20:34:37.252Z,77173.07
2019-04-03T20:37:06.516Z,77168.02
2019-04-03T20:39:36.167Z,77163.98
2019-04-03T20:42:08.034Z,77162.97
2019-04-03T20:44:38.934Z,77172.06
2019-04-03T20:47:08.784Z,77190.24
2019-04-03T20:49:38.499Z,77192.27
2019-04-03T20:52:10.871Z,77195.30
2019-04-03T20:54:39.456Z,77193.27
2019-04-03T20:57:08.744Z,77190.24
2019-04-03T20:59:37.969Z,77195.30
2019-04-03T21:02:08.258Z,77197.31
2019-04-03T21:04:38.175Z,77216.51
2019-04-03T21:07:07.805Z,77215.50
2019-04-03T21:09:37.067Z,77227.63
2019-04-03T21:12:06.467Z,77220.55
2019-04-03T21:14:36.015Z,77225.59
2019-04-03T21:17:05.371Z,77224.59
2019-04-03T21:19:34.880Z,77229.64
2019-04-03T21:22:04.639Z,77234.69
2019-04-03T21:24:34.277Z,77232.67
2019-04-03T21:27:06.863Z,77233.69
2019-04-03T21:29:36.448Z,77235.70
2019-04-03T21:32:05.870Z,77236.71
2019-04-03T21:34:35.097Z,77240.75
2019-04-03T21:37:04.369Z,77241.77
2019-04-03T21:39:34.050Z,77231.66
2019-04-03T21:42:03.662Z,77228.63
2019-04-03T21:44:32.913Z,77235.70
2019-04-03T21:47:02.172Z,77245.80
2019-04-03T21:49:31.842Z,77255.91
2019-04-03T21:52:01.146Z,77259.95
2019-04-03T21:54:30.376Z,77260.95
2019-04-03T21:56:59.629Z,77265.00
2019-04-03T21:59:28.882Z,77272.07
2019-04-03T22:01:59.901Z,77268.03
2019-04-03T22:04:29.435Z,77260.95
2019-04-03T22:06:58.997Z,77248.84
2019-04-03T22:09:28.826Z,77237.72
2019-04-03T22:11:59.243Z,77243.78
2019-04-03T22:14:28.528Z,77238.73
2019-04-03T22:16:57.809Z,77226.61
2019-04-03T22:19:27.597Z,77219.54
2019-04-03T22:21:57.578Z,77233.69
2019-04-03T22:24:26.801Z,77234.69
2019-04-03T22:26:56.715Z,77224.59
2019-04-03T22:29:25.954Z,77223.58
2019-04-03T22:31:55.532Z,77219.54
2019-04-03T22:34:25.157Z,77216.51
2019-04-03T22:36:54.684Z,77228.63
2019-04-03T22:39:24.276Z,77242.77
2019-04-03T22:41:53.898Z,77237.72
2019-04-03T22:44:23.350Z,77230.66
2019-04-03T22:46:54.011Z,77226.61
2019-04-03T22:49:23.912Z,77226.61
2019-04-03T22:51:53.326Z,77220.55
2019-04-03T22:54:22.641Z,77197.31
2019-04-03T22:56:51.885Z,77194.28
2019-04-03T22:59:24.308Z,77198.33
2019-04-03T23:01:52.857Z,77213.48
2019-04-03T23:04:22.240Z,77214.48
2019-04-03T23:06:52.803Z,77212.47
2019-04-03T23:09:24.675Z,77215.50
2019-04-03T23:11:53.419Z,77228.63
2019-04-03T23:14:24.364Z,77231.66
2019-04-03T23:16:54.115Z,77230.66
2019-04-03T23:19:23.590Z,77231.66
2019-04-03T23:21:55.431Z,77230.66
2019-04-03T23:24:28.530Z,77239.74
2019-04-03T23:26:57.161Z,77246.81
2019-04-03T23:29:26.462Z,77247.83
2019-04-03T23:31:56.715Z,77246.81
2019-04-03T23:34:26.415Z,77240.75
2019-04-03T23:36:55.678Z,77243.78
2019-04-03T23:39:28.022Z,77233.69
2019-04-03T23:41:58.002Z,77233.69
2019-04-03T23:44:28.974Z,77238.73
2019-04-03T23:46:58.305Z,77233.69
2019-04-03T23:49:28.040Z,77225.59
2019-04-03T23:51:59.535Z,77235.70
2019-04-03T23:54:29.401Z,77227.63
2019-04-03T23:56:58.653Z,77243.78
2019-04-03T23:59:30.058Z,77242.77
